createdAt,value
2018-12-01T00:00:08.183Z,-1.95
2018-12-01T00:02:39.401Z,-1.91
2018-12-01T00:05:12.693Z,-1.88
2018-12-01T00:07:45.468Z,-1.88
2018-12-01T00:10:20.811Z,-1.90
2018-12-01T00:12:52.574Z,-1.97
2018-12-01T00:15:26.722Z,-2.02
2018-12-01T00:17:59.530Z,-2.01
2018-12-01T00:20:34.192Z,-1.98
2018-12-01T00:23:04.344Z,-1.95
2018-12-01T00:25:34.859Z,-2.12
2018-12-01T00:28:05.486Z,-2.13
2018-12-01T00:30:35.899Z,-2.08
2018-12-01T00:33:06.746Z,-2.03
2018-12-01T00:35:37.230Z,-2.03
2018-12-01T00:38:07.910Z,-1.99
2018-12-01T00:40:38.382Z,-1.97
2018-12-01T00:43:08.652Z,-1.92
2018-12-01T00:45:45.380Z,-1.93
2018-12-01T00:48:16.671Z,-1.94
2018-12-01T00:50:47.611Z,-1.92
2018-12-01T00:53:17.738Z,-1.92
2018-12-01T00:55:48.569Z,-1.90
2018-12-01T00:58:19.699Z,-1.93
2018-12-01T01:00:49.793Z,-1.88
2018-12-01T01:03:20.877Z,-1.91
2018-12-01T01:05:53.833Z,-2.03
2018-12-01T01:08:24.628Z,-1.99
2018-12-01T01:10:58.093Z,-1.94
2018-12-01T01:13:30.152Z,-1.91
2018-12-01T01:16:05.288Z,-1.88
2018-12-01T01:18:39.250Z,-1.84
2018-12-01T01:21:13.038Z,-1.88
2018-12-01T01:23:45.296Z,-1.87
2018-12-01T01:26:18.912Z,-1.82
2018-12-01T01:28:50.532Z,-1.81
2018-12-01T01:31:22.415Z,-1.81
2018-12-01T01:33:52.675Z,-1.77
2018-12-01T01:36:27.772Z,-1.74
2018-12-01T01:38:57.877Z,-1.71
2018-12-01T01:41:30.857Z,-1.67
2018-12-01T01:44:07.536Z,-1.64
2018-12-01T01:46:37.703Z,-1.71
2018-12-01T01:49:08.945Z,-1.70
2018-12-01T01:51:39.414Z,-1.69
2018-12-01T01:54:09.975Z,-1.70
2018-12-01T01:56:40.375Z,-1.70
2018-12-01T01:59:10.821Z,-1.69
2018-12-01T02:01:44.729Z,-1.68
2018-12-01T02:04:14.879Z,-1.67
2018-12-01T02:06:48.772Z,-1.66
2018-12-01T02:09:19.904Z,-1.63
2018-12-01T02:11:50.040Z,-1.61
2018-12-01T02:14:21.072Z,-1.61
2018-12-01T02:16:51.921Z,-1.58
2018-12-01T02:19:24.999Z,-1.55
2018-12-01T02:21:56.026Z,-1.56
2018-12-01T02:24:29.863Z,-1.56
2018-12-01T02:26:59.986Z,-1.55
2018-12-01T02:29:30.062Z,-1.57
2018-12-01T02:32:01.515Z,-1.56
2018-12-01T02:34:31.254Z,-1.55
2018-12-01T02:37:02.091Z,-1.55
2018-12-01T02:39:33.015Z,-1.54
2018-12-01T02:42:03.365Z,-1.54
2018-12-01T02:44:59.812Z,-1.56
2018-12-01T02:47:30.985Z,-1.55
2018-12-01T02:50:02.383Z,-1.54
2018-12-01T02:52:32.472Z,-1.54
2018-12-01T02:55:03.204Z,-1.51
2018-12-01T02:57:33.303Z,-1.50
2018-12-01T03:00:05.816Z,-1.48
2018-12-01T03:02:37.781Z,-1.48
2018-12-01T03:05:09.720Z,-1.55
2018-12-01T03:07:42.236Z,-1.55
2018-12-01T03:10:13.712Z,-1.55
2018-12-01T03:12:46.284Z,-1.55
2018-12-01T03:15:18.645Z,-1.54
2018-12-01T03:17:51.503Z,-1.55
2018-12-01T03:20:21.662Z,-1.52
2018-12-01T03:22:52.229Z,-1.48
2018-12-01T03:25:25.270Z,-1.47
2018-12-01T03:27:56.334Z,-1.47
2018-12-01T03:30:28.362Z,-1.46
2018-12-01T03:32:59.286Z,-1.44
2018-12-01T03:35:30.270Z,-1.42
2018-12-01T03:38:02.339Z,-1.42
2018-12-01T03:40:51.853Z,-1.48
2018-12-01T03:43:21.974Z,-1.49
2018-12-01T03:45:55.080Z,-1.46
2018-12-01T03:48:25.438Z,-1.43
2018-12-01T03:50:58.456Z,-1.41
2018-12-01T03:53:29.457Z,-1.43
2018-12-01T03:55:59.649Z,-1.45
2018-12-01T03:58:36.324Z,-1.42
2018-12-01T04:01:07.496Z,-1.42
2018-12-01T04:03:46.179Z,-1.41
2018-12-01T04:06:16.505Z,-1.40
2018-12-01T04:08:47.571Z,-1.40
2018-12-01T04:11:18.388Z,-1.39
2018-12-01T04:13:51.484Z,-1.37
2018-12-01T04:16:21.601Z,-1.36
2018-12-01T04:18:52.570Z,-1.34
2018-12-01T04:21:24.491Z,-1.33
2018-12-01T04:24:03.420Z,-1.32
2018-12-01T04:26:34.534Z,-1.29
2018-12-01T04:29:08.009Z,-1.28
2018-12-01T04:31:38.635Z,-1.28
2018-12-01T04:34:11.634Z,-1.27
2018-12-01T04:36:42.475Z,-1.27
2018-12-01T04:39:12.657Z,-1.26
2018-12-01T04:41:43.606Z,-1.24
2018-12-01T04:44:14.547Z,-1.21
2018-12-01T04:46:45.719Z,-1.19
2018-12-01T04:49:16.730Z,-1.17
2018-12-01T04:51:49.644Z,-1.11
2018-12-01T04:54:20.669Z,-1.12
2018-12-01T04:56:57.741Z,-1.11
2018-12-01T04:59:30.778Z,-1.07
2018-12-01T05:02:03.816Z,-1.03
2018-12-01T05:04:34.741Z,-1.00
2018-12-01T05:07:07.816Z,-0.96
2018-12-01T05:09:38.662Z,-0.91
2018-12-01T05:12:08.915Z,-0.89
2018-12-01T05:14:42.868Z,-0.85
2018-12-01T05:17:13.467Z,-0.74
2018-12-01T05:19:43.965Z,-0.74
2018-12-01T05:22:14.776Z,-0.76
2018-12-01T05:24:45.251Z,-0.71
2018-12-01T05:27:15.847Z,-0.71
2018-12-01T05:29:46.579Z,-0.66
2018-12-01T05:32:17.117Z,-0.60
2018-12-01T05:34:47.737Z,-0.49
2018-12-01T05:37:18.804Z,-0.49
2018-12-01T05:39:50.321Z,-0.39
2018-12-01T05:42:21.481Z,-0.35
2018-12-01T05:44:53.242Z,-0.33
2018-12-01T05:47:25.008Z,-0.29
2018-12-01T05:50:04.242Z,-0.29
2018-12-01T05:52:38.723Z,-0.27
2018-12-01T05:55:12.714Z,-0.14
2018-12-01T05:57:50.153Z,-0.10
2018-12-01T06:00:21.613Z,-0.02
2018-12-01T06:02:52.862Z,-0.03
2018-12-01T06:05:25.028Z,-0.01
2018-12-01T06:07:59.686Z,0.12
2018-12-01T06:10:52.868Z,0.04
2018-12-01T06:13:56.226Z,0.05
2018-12-01T06:17:17.726Z,0.15
2018-12-01T06:47:38.100Z,0.35
2018-12-01T06:50:49.884Z,0.38
2018-12-01T06:53:39.225Z,-0.39
2018-12-01T06:56:18.659Z,0.38
2018-12-01T06:58:59.635Z,0.38
2018-12-01T07:01:38.709Z,0.38
2018-12-01T07:04:11.026Z,0.38
2018-12-01T07:06:50.514Z,0.52
2018-12-01T07:09:22.698Z,0.55
2018-12-01T07:11:55.524Z,0.56
2018-12-01T07:14:28.090Z,0.59
2018-12-01T07:16:59.597Z,0.65
2018-12-01T07:19:29.763Z,0.68
2018-12-01T07:22:00.388Z,0.69
2018-12-01T07:24:31.260Z,0.68
2018-12-01T07:27:01.423Z,0.74
2018-12-01T07:29:32.055Z,0.76
2018-12-01T07:32:02.484Z,0.77
2018-12-01T07:34:33.557Z,0.76
2018-12-01T07:37:03.685Z,0.79
2018-12-01T07:39:34.172Z,0.79
2018-12-01T07:42:05.264Z,0.82
2018-12-01T07:44:35.449Z,0.99
2018-12-01T07:47:06.069Z,0.97
2018-12-01T07:49:37.197Z,1.01
2018-12-01T07:52:07.364Z,1.10
2018-12-01T07:54:37.499Z,1.15
2018-12-01T07:57:08.532Z,1.24
2018-12-01T07:59:39.240Z,1.27
2018-12-01T08:02:09.436Z,1.29
2018-12-01T08:04:39.588Z,1.36
2018-12-01T08:07:10.545Z,1.38
2018-12-01T08:09:41.453Z,1.37
2018-12-01T08:12:11.647Z,1.39
2018-12-01T08:14:42.471Z,1.37
2018-12-01T08:17:19.505Z,1.46
2018-12-01T08:19:56.648Z,1.40
2018-12-01T08:22:27.641Z,1.45
2018-12-01T08:25:05.248Z,1.51
2018-12-01T08:27:37.759Z,1.53
2018-12-01T08:30:25.308Z,1.66
2018-12-01T08:32:57.583Z,1.67
2018-12-01T08:35:29.217Z,1.76
2018-12-01T08:38:01.726Z,1.83
2018-12-01T08:40:34.401Z,1.88
2018-12-01T08:43:06.030Z,1.94
2018-12-01T08:45:36.179Z,2.02
2018-12-01T08:48:07.712Z,2.01
2018-12-01T08:50:38.241Z,2.07
2018-12-01T08:53:10.919Z,2.09
2018-12-01T08:55:41.937Z,2.10
2018-12-01T08:58:13.457Z,2.07
2018-12-01T09:00:45.897Z,2.22
2018-12-01T09:03:23.369Z,2.17
2018-12-01T09:05:55.856Z,2.18
2018-12-01T09:08:26.000Z,2.17
2018-12-01T09:11:02.765Z,2.13
2018-12-01T09:13:36.641Z,2.19
2018-12-01T09:16:08.855Z,2.26
2018-12-01T09:18:44.147Z,2.21
2018-12-01T09:21:14.908Z,2.29
2018-12-01T09:23:45.540Z,2.23
2018-12-01T09:26:15.915Z,2.20
2018-12-01T09:28:46.839Z,2.24
2018-12-01T09:31:17.876Z,2.15
2018-12-01T09:33:47.986Z,2.12
2018-12-01T09:36:22.003Z,2.26
2018-12-01T09:38:54.947Z,2.25
2018-12-01T09:41:28.017Z,2.30
2018-12-01T09:43:59.893Z,2.36
2018-12-01T09:46:30.997Z,2.45
2018-12-01T09:49:03.996Z,2.45
2018-12-01T09:51:40.889Z,2.41
2018-12-01T09:54:13.946Z,2.32
2018-12-01T09:56:44.619Z,2.32
2018-12-01T09:59:14.920Z,2.31
2018-12-01T10:01:46.191Z,2.33
2018-12-01T10:04:16.293Z,2.47
2018-12-01T10:06:48.959Z,2.45
2018-12-01T10:09:19.987Z,2.37
2018-12-01T10:11:56.672Z,2.40
2018-12-01T10:14:27.316Z,2.39
2018-12-01T10:16:57.781Z,2.45
2018-12-01T10:19:32.078Z,2.42
2018-12-01T10:22:05.103Z,2.48
2018-12-01T10:24:35.127Z,2.48
2018-12-01T10:27:11.971Z,2.46
2018-12-01T10:29:42.250Z,2.40
2018-12-01T10:32:16.284Z,2.47
2018-12-01T10:34:47.136Z,2.51
2018-12-01T10:37:17.653Z,2.59
2018-12-01T10:39:48.054Z,2.63
2018-12-01T10:42:19.025Z,2.64
2018-12-01T10:44:49.893Z,2.63
2018-12-01T10:47:20.231Z,2.63
2018-12-01T10:49:57.167Z,2.59
2018-12-01T10:52:28.289Z,2.55
2018-12-01T10:55:02.101Z,2.57
2018-12-01T10:57:35.238Z,2.51
2018-12-01T11:00:17.200Z,2.47
2018-12-01T11:02:55.686Z,2.48
2018-12-01T11:05:25.619Z,2.45
2018-12-01T11:07:56.514Z,2.49
2018-12-01T11:10:27.313Z,2.44
2018-12-01T11:12:58.025Z,2.49
2018-12-01T11:15:28.352Z,2.49
2018-12-01T11:17:58.989Z,2.47
2018-12-01T11:20:29.540Z,2.52
2018-12-01T11:23:00.189Z,2.61
2018-12-01T11:25:30.363Z,2.58
2018-12-01T11:28:01.435Z,2.58
2018-12-01T11:30:32.101Z,2.64
2018-12-01T11:33:02.508Z,2.67
2018-12-01T11:35:33.212Z,2.78
2018-12-01T11:38:03.915Z,2.93
2018-12-01T11:40:34.465Z,3.00
2018-12-01T11:43:04.649Z,2.90
2018-12-01T11:45:35.617Z,2.87
2018-12-01T11:48:07.386Z,2.88
2018-12-01T11:50:37.891Z,2.91
2018-12-01T11:53:08.257Z,2.98
2018-12-01T11:55:38.740Z,3.08
2018-12-01T11:58:10.081Z,3.06
2018-12-01T12:00:40.171Z,3.11
2018-12-01T12:03:10.820Z,3.05
2018-12-01T12:05:41.625Z,3.03
2018-12-01T12:08:20.587Z,2.94
2018-12-01T12:10:51.887Z,2.81
2018-12-01T12:13:23.083Z,2.78
2018-12-01T12:15:56.037Z,2.68
2018-12-01T12:18:28.950Z,2.63
2018-12-01T12:20:59.768Z,2.56
2018-12-01T12:23:30.769Z,2.49
2018-12-01T12:26:01.788Z,2.48
2018-12-01T12:28:31.998Z,2.44
2018-12-01T12:31:02.445Z,2.44
2018-12-01T12:33:32.989Z,2.43
2018-12-01T12:36:03.530Z,2.48
2018-12-01T12:38:34.157Z,2.49
2018-12-01T12:41:04.861Z,2.54
2018-12-01T12:43:35.328Z,2.55
2018-12-01T12:46:06.003Z,2.56
2018-12-01T12:48:36.663Z,2.49
2018-12-01T12:51:06.926Z,2.46
2018-12-01T12:53:43.602Z,2.39
2018-12-01T12:56:14.798Z,2.39
2018-12-01T12:58:44.907Z,2.40
2018-12-01T13:01:15.895Z,2.40
2018-12-01T13:03:46.847Z,2.39
2018-12-01T13:06:18.268Z,2.46
2018-12-01T13:08:48.807Z,2.49
2018-12-01T13:11:21.949Z,2.50
2018-12-01T13:13:53.008Z,2.53
2018-12-01T13:16:29.477Z,2.58
2018-12-01T13:19:00.036Z,2.55
2018-12-01T13:21:31.143Z,2.54
2018-12-01T13:24:01.349Z,2.55
2018-12-01T13:26:32.226Z,2.56
2018-12-01T13:29:02.732Z,2.55
2018-12-01T13:31:33.194Z,2.58
2018-12-01T13:34:03.794Z,2.62
2018-12-01T13:36:34.030Z,2.65
2018-12-01T13:39:06.815Z,2.70
2018-12-01T13:41:39.115Z,2.78
2018-12-01T13:44:15.089Z,2.76
2018-12-01T13:46:46.034Z,2.70
2018-12-01T13:49:19.031Z,2.67
2018-12-01T13:51:49.931Z,2.63
2018-12-01T13:54:20.000Z,2.60
2018-12-01T13:56:51.109Z,2.59
2018-12-01T13:59:22.209Z,2.57
2018-12-01T14:01:58.129Z,2.55
2018-12-01T14:04:29.089Z,2.53
2018-12-01T14:06:59.959Z,2.54
2018-12-01T14:09:30.092Z,2.56
2018-12-01T14:12:03.936Z,2.58
2018-12-01T14:14:35.126Z,2.59
2018-12-01T14:17:05.405Z,2.61
2018-12-01T14:19:38.972Z,2.62
2018-12-01T14:22:10.225Z,2.62
2018-12-01T14:24:41.031Z,2.62
2018-12-01T14:27:11.787Z,2.61
2018-12-01T14:29:42.296Z,2.61
2018-12-01T14:32:13.188Z,2.62
2018-12-01T14:34:43.304Z,2.60
2018-12-01T14:37:20.075Z,2.55
2018-12-01T14:39:50.223Z,2.52
2018-12-01T14:42:25.386Z,2.51
2018-12-01T14:44:58.505Z,2.50
2018-12-01T14:47:37.499Z,2.46
2018-12-01T14:50:09.810Z,2.45
2018-12-01T14:52:41.920Z,2.44
2018-12-01T14:55:15.908Z,2.41
2018-12-01T14:57:48.519Z,2.41
2018-12-01T15:00:25.561Z,2.40
2018-12-01T15:02:56.516Z,2.42
2018-12-01T15:05:27.102Z,2.40
2018-12-01T15:08:00.213Z,2.39
2018-12-01T15:10:30.882Z,2.38
2018-12-01T15:13:03.282Z,2.36
2018-12-01T15:15:34.533Z,2.33
2018-12-01T15:18:04.664Z,2.27
2018-12-01T15:20:35.492Z,2.24
2018-12-01T15:23:13.365Z,2.03
2018-12-01T15:25:43.473Z,2.19
2018-12-01T15:28:13.588Z,2.18
2018-12-01T15:30:44.451Z,2.22
2018-12-01T15:33:15.742Z,2.23
2018-12-01T15:35:46.818Z,2.23
2018-12-01T15:38:18.541Z,2.21
2018-12-01T15:40:53.026Z,2.20
2018-12-01T15:43:23.125Z,2.19
2018-12-01T15:45:53.588Z,2.15
2018-12-01T15:48:25.715Z,2.15
2018-12-01T15:50:57.582Z,2.16
2018-12-01T15:53:28.599Z,2.15
2018-12-01T15:55:58.803Z,2.13
2018-12-01T15:58:29.753Z,2.11
2018-12-01T16:00:59.863Z,2.11
2018-12-01T16:03:30.623Z,2.13
2018-12-01T16:06:00.914Z,2.14
2018-12-01T16:08:31.716Z,2.13
2018-12-01T16:11:02.034Z,2.11
2018-12-01T16:13:33.108Z,2.09
2018-12-01T16:16:10.157Z,2.11
2018-12-01T16:18:47.719Z,2.11
2018-12-01T16:21:18.949Z,2.09
2018-12-01T16:23:51.961Z,2.08
2018-12-01T16:26:22.371Z,2.07
2018-12-01T16:28:52.807Z,2.04
2018-12-01T16:31:22.920Z,2.03
2018-12-01T16:33:54.051Z,2.00
2018-12-01T16:36:25.658Z,1.99
2018-12-01T16:38:57.888Z,1.96
2018-12-01T16:41:34.444Z,1.95
2018-12-01T16:44:06.332Z,1.93
2018-12-01T16:46:38.779Z,1.96
2018-12-01T16:49:09.868Z,1.94
2018-12-01T16:51:45.909Z,1.94
2018-12-01T16:54:16.930Z,1.93
2018-12-01T16:56:47.937Z,1.95
2018-12-01T16:59:19.919Z,1.95
2018-12-01T17:01:50.080Z,1.92
2018-12-01T17:04:22.529Z,1.88
2018-12-01T17:06:52.846Z,1.84
2018-12-01T17:09:23.061Z,1.76
2018-12-01T17:11:57.845Z,1.65
2018-12-01T17:14:28.983Z,1.57
2018-12-01T17:17:02.084Z,1.51
2018-12-01T17:19:33.108Z,1.47
2018-12-01T17:22:06.579Z,1.40
2018-12-01T17:24:37.103Z,1.32
2018-12-01T17:27:10.050Z,1.27
2018-12-01T17:29:40.225Z,1.23
2018-12-01T17:32:11.117Z,1.21
2018-12-01T17:34:47.836Z,1.20
2018-12-01T17:37:18.271Z,1.24
2018-12-01T17:39:49.062Z,1.23
2018-12-01T17:42:22.223Z,1.24
2018-12-01T17:44:52.572Z,1.19
2018-12-01T17:47:22.777Z,1.22
2018-12-01T17:49:53.158Z,1.26
2018-12-01T17:52:23.337Z,1.26
2018-12-01T17:54:54.200Z,1.32
2018-12-01T17:57:26.181Z,1.34
2018-12-01T18:00:05.137Z,1.35
2018-12-01T18:02:35.313Z,1.35
2018-12-01T18:05:08.496Z,1.37
2018-12-01T18:07:39.201Z,1.37
2018-12-01T18:10:12.899Z,1.36
2018-12-01T18:12:43.972Z,1.37
2018-12-01T18:15:15.736Z,1.37
2018-12-01T18:17:48.396Z,1.37
2018-12-01T18:20:22.871Z,1.37
2018-12-01T18:22:57.776Z,1.39
2018-12-01T18:25:31.211Z,1.39
2018-12-01T18:28:02.312Z,1.40
2018-12-01T18:30:35.940Z,1.44
2018-12-01T18:33:10.276Z,1.47
2018-12-01T18:35:42.471Z,1.43
2018-12-01T18:38:14.461Z,1.38
2018-12-01T18:40:45.527Z,1.35
2018-12-01T18:43:16.046Z,1.38
2018-12-01T18:45:48.316Z,1.41
2018-12-01T18:48:19.543Z,1.45
2018-12-01T18:50:56.328Z,1.46
2018-12-01T18:53:29.537Z,1.49
2018-12-01T18:56:03.094Z,1.47
2018-12-01T18:58:38.089Z,1.44
2018-12-01T19:01:10.834Z,1.40
2018-12-01T19:03:43.487Z,1.31
2018-12-01T19:06:16.610Z,1.26
2018-12-01T19:08:47.697Z,1.24
2018-12-01T19:11:18.587Z,1.22
2018-12-01T19:13:51.526Z,1.21
2018-12-01T19:16:25.543Z,1.21
2018-12-01T19:18:55.920Z,1.24
2018-12-01T19:21:26.865Z,1.27
2018-12-01T19:24:00.393Z,1.29
2018-12-01T19:26:31.432Z,1.27
2018-12-01T19:29:03.861Z,1.27
2018-12-01T19:31:34.982Z,1.28
2018-12-01T19:34:06.336Z,1.28
2018-12-01T19:36:38.739Z,1.28
2018-12-01T19:39:13.130Z,1.29
2018-12-01T19:41:43.655Z,1.28
2018-12-01T19:44:15.154Z,1.25
2018-12-01T19:46:47.709Z,1.24
2018-12-01T19:49:20.717Z,1.22
2018-12-01T19:51:57.771Z,1.18
2018-12-01T19:54:29.916Z,1.18
2018-12-01T19:57:02.603Z,1.21
2018-12-01T19:59:33.530Z,1.24
2018-12-01T20:02:04.662Z,1.27
2018-12-01T20:04:37.978Z,1.29
2018-12-01T20:07:11.010Z,1.27
2018-12-01T20:09:46.523Z,1.23
2018-12-01T20:12:17.994Z,1.25
2018-12-01T20:14:50.285Z,1.13
2018-12-01T20:17:21.094Z,1.13
2018-12-01T20:19:52.312Z,1.16
2018-12-01T20:22:22.841Z,1.18
2018-12-01T20:24:53.364Z,1.14
2018-12-01T20:27:24.812Z,1.12
2018-12-01T20:30:01.508Z,1.10
2018-12-01T20:32:34.406Z,1.11
2018-12-01T20:35:06.114Z,1.17
2018-12-01T20:37:37.983Z,1.21
2018-12-01T20:40:12.483Z,1.20
2018-12-01T20:42:42.835Z,1.21
2018-12-01T20:45:13.389Z,1.14
2018-12-01T20:47:43.602Z,1.08
2018-12-01T20:50:16.310Z,1.01
2018-12-01T20:52:47.882Z,1.02
2018-12-01T20:55:27.676Z,1.00
2018-12-01T20:57:59.773Z,1.01
2018-12-01T21:00:31.468Z,1.00
2018-12-01T21:03:05.664Z,1.01
2018-12-01T21:05:35.938Z,1.02
2018-12-01T21:08:06.840Z,1.03
2018-12-01T21:10:39.368Z,0.99
2018-12-01T21:13:13.881Z,1.02
2018-12-01T21:15:47.692Z,0.96
2018-12-01T21:18:17.892Z,0.95
2018-12-01T21:20:49.020Z,0.98
2018-12-01T21:23:20.020Z,1.01
2018-12-01T21:25:53.085Z,1.01
2018-12-01T21:28:23.205Z,0.96
2018-12-01T21:30:54.095Z,0.97
2018-12-01T21:33:29.179Z,0.89
2018-12-01T21:36:01.160Z,0.90
2018-12-01T21:38:31.241Z,0.80
2018-12-01T21:41:02.130Z,0.81
2018-12-01T21:43:40.950Z,0.79
2018-12-01T21:46:15.032Z,0.80
2018-12-01T21:48:50.411Z,0.83
2018-12-01T21:51:26.200Z,0.78
2018-12-01T21:53:58.282Z,0.76
2018-12-01T21:56:29.096Z,0.74
2018-12-01T21:58:59.264Z,0.75
2018-12-01T22:01:30.068Z,0.75
2018-12-01T22:04:00.178Z,0.78
2018-12-01T22:06:31.406Z,0.82
2018-12-01T22:09:02.158Z,0.88
2018-12-01T22:11:32.462Z,0.88
2018-12-01T22:14:02.995Z,0.80
2018-12-01T22:16:33.624Z,0.73
2018-12-01T22:19:04.289Z,0.75
2018-12-01T22:21:34.999Z,0.65
2018-12-01T22:24:05.743Z,0.62
2018-12-01T22:26:39.398Z,0.54
2018-12-01T22:29:10.369Z,0.54
2018-12-01T22:31:43.543Z,0.42
2018-12-01T22:34:14.364Z,0.41
2018-12-01T22:36:45.359Z,0.45
2018-12-01T22:39:16.458Z,0.50
2018-12-01T22:41:49.653Z,0.23
2018-12-01T22:44:20.516Z,0.20
2018-12-01T22:46:53.533Z,0.31
2018-12-01T22:49:23.689Z,0.28
2018-12-01T22:51:54.464Z,0.23
2018-12-01T22:54:28.183Z,0.25
2018-12-01T22:56:58.331Z,0.26
2018-12-01T22:59:29.175Z,0.32
2018-12-01T23:01:59.676Z,0.31
2018-12-01T23:04:30.062Z,0.31
2018-12-01T23:07:00.750Z,0.29
2018-12-01T23:09:31.238Z,0.28
2018-12-01T23:12:01.469Z,0.25
2018-12-01T23:14:32.315Z,0.21
2018-12-01T23:17:02.552Z,0.23
2018-12-01T23:19:32.641Z,0.19
2018-12-01T23:22:09.458Z,0.19
2018-12-01T23:24:40.705Z,0.15
2018-12-01T23:27:11.676Z,0.12
2018-12-01T23:29:41.822Z,0.15
2018-12-01T23:32:14.693Z,0.13
2018-12-01T23:34:45.499Z,0.13
2018-12-01T23:37:16.596Z,0.12
2018-12-01T23:39:47.421Z,0.11
2018-12-01T23:42:17.655Z,0.16
2018-12-01T23:44:51.448Z,-0.02
2018-12-01T23:47:21.775Z,0.00
2018-12-01T23:49:52.607Z,-0.08
2018-12-01T23:52:22.848Z,-0.06
2018-12-01T23:54:53.627Z,-0.02
2018-12-01T23:57:24.030Z,0.09
2018-12-01T23:59:55.783Z,-0.04
